createdAt,value
2022-12-26T00:00:18.569Z,4.47
2022-12-26T00:02:46.166Z,4.05
2022-12-26T00:05:13.758Z,4.10
2022-12-26T00:07:42.627Z,4.10
2022-12-26T00:10:10.265Z,4.15
2022-12-26T00:12:37.943Z,5.20
2022-12-26T00:15:05.824Z,4.40
2022-12-26T00:17:33.297Z,4.10
2022-12-26T00:20:00.778Z,4.30
2022-12-26T00:22:28.232Z,4.07
2022-12-26T00:24:57.248Z,4.60
2022-12-26T00:27:24.731Z,4.78
2022-12-26T00:29:52.218Z,4.72
2022-12-26T00:32:19.679Z,4.55
2022-12-26T00:34:47.162Z,5.20
2022-12-26T00:37:14.621Z,4.50
2022-12-26T00:39:42.101Z,4.78
2022-12-26T00:42:10.877Z,4.95
2022-12-26T00:44:38.398Z,4.97
2022-12-26T00:47:06.225Z,5.53
2022-12-26T00:50:12.696Z,4.80
2022-12-26T00:52:21.270Z,4.78
2022-12-26T00:54:50.196Z,4.20
2022-12-26T00:57:19.008Z,5.63
2022-12-26T00:59:46.494Z,4.60
2022-12-26T01:02:28.082Z,4.78
2022-12-26T01:04:55.699Z,4.30
2022-12-26T01:07:23.478Z,4.57
2022-12-26T01:09:50.978Z,3.95
2022-12-26T01:12:19.797Z,3.85
2022-12-26T01:14:47.357Z,4.20
2022-12-26T01:17:14.807Z,3.72
2022-12-26T01:19:42.283Z,3.67
2022-12-26T01:22:09.751Z,4.38
2022-12-26T01:24:38.454Z,4.57
2022-12-26T01:27:05.922Z,4.80
2022-12-26T01:29:34.894Z,4.20
2022-12-26T01:32:02.448Z,4.10
2022-12-26T01:34:30.080Z,3.25
2022-12-26T01:36:57.592Z,4.28
2022-12-26T01:39:25.101Z,3.72
2022-12-26T01:41:52.579Z,2.40
2022-12-26T01:44:56.849Z,3.25
2022-12-26T01:47:35.223Z,3.67
2022-12-26T01:50:03.008Z,4.00
2022-12-26T01:52:33.168Z,3.05
2022-12-26T01:55:01.682Z,3.10
2022-12-26T01:57:31.557Z,3.13
2022-12-26T01:59:59.821Z,2.80
2022-12-26T02:02:29.751Z,3.42
2022-12-26T02:05:11.612Z,6.43
2022-12-26T02:07:41.554Z,4.03
2022-12-26T02:10:12.071Z,3.47
2022-12-26T02:12:39.618Z,7.50
2022-12-26T02:15:10.540Z,4.93
2022-12-26T02:17:40.565Z,4.32
2022-12-26T02:20:16.712Z,4.03
2022-12-26T02:23:18.750Z,4.63
2022-12-26T02:26:26.765Z,4.13
2022-12-26T02:29:32.244Z,3.80
2022-12-26T02:32:07.119Z,3.92
2022-12-26T02:34:40.275Z,3.60
2022-12-26T02:37:17.892Z,4.10
2022-12-26T02:40:01.695Z,4.28
2022-12-26T02:42:36.098Z,3.67
2022-12-26T02:45:28.320Z,4.00
2022-12-26T02:48:04.118Z,4.20
2022-12-26T02:50:54.681Z,3.42
2022-12-26T02:53:47.002Z,4.10
2022-12-26T02:56:38.368Z,3.90
2022-12-26T02:59:54.635Z,3.13
2022-12-26T03:02:42.097Z,3.05
2022-12-26T03:05:32.625Z,3.00
2022-12-26T03:08:18.508Z,2.78
2022-12-26T03:11:03.775Z,2.75
2022-12-26T03:13:36.804Z,2.70
2022-12-26T03:16:23.891Z,2.60
2022-12-26T03:18:57.646Z,2.60
2022-12-26T03:21:30.325Z,2.47
2022-12-26T03:23:57.828Z,2.65
2022-12-26T03:26:42.399Z,2.80
2022-12-26T03:29:29.231Z,2.38
2022-12-26T03:31:57.190Z,2.30
2022-12-26T03:34:25.355Z,2.58
2022-12-26T03:37:12.227Z,2.70
2022-12-26T03:40:03.583Z,2.58
2022-12-26T03:42:54.079Z,2.90
2022-12-26T03:45:45.204Z,2.83
2022-12-26T03:48:37.153Z,4.60
2022-12-26T03:51:32.461Z,5.15
2022-12-26T03:54:24.602Z,4.88
2022-12-26T03:57:12.478Z,7.10
2022-12-26T04:00:01.335Z,7.38
2022-12-26T04:02:48.152Z,4.93
2022-12-26T04:05:34.999Z,4.15
2022-12-26T04:08:24.787Z,3.75
2022-12-26T04:11:14.349Z,3.25
2022-12-26T04:14:07.775Z,3.45
2022-12-26T04:16:56.574Z,3.25
2022-12-26T04:19:42.250Z,3.70
2022-12-26T04:22:31.496Z,3.25
2022-12-26T04:25:20.475Z,3.28
2022-12-26T04:28:26.914Z,3.50
2022-12-26T04:31:17.310Z,3.15
2022-12-26T04:34:05.989Z,3.60
2022-12-26T04:36:54.867Z,3.67
2022-12-26T04:39:42.227Z,3.47
2022-12-26T04:42:27.726Z,3.97
2022-12-26T04:44:57.188Z,3.58
2022-12-26T04:47:26.160Z,5.00
2022-12-26T04:50:11.456Z,20.55
2022-12-26T04:52:59.613Z,7.55
2022-12-26T04:55:29.482Z,6.32
2022-12-26T04:57:57.236Z,6.72
2022-12-26T05:00:28.033Z,7.30
2022-12-26T05:03:18.763Z,8.82
2022-12-26T05:06:08.620Z,9.10
2022-12-26T05:08:56.833Z,7.13
2022-12-26T05:11:24.491Z,6.68
2022-12-26T05:13:52.660Z,4.75
2022-12-26T05:16:39.319Z,5.10
2022-12-26T05:19:24.452Z,3.60
2022-12-26T05:22:09.779Z,2.83
2022-12-26T05:24:58.196Z,2.60
2022-12-26T05:27:43.977Z,2.17
2022-12-26T05:30:12.480Z,1.67
2022-12-26T05:32:59.239Z,1.85
2022-12-26T05:35:27.609Z,2.03
2022-12-26T05:37:55.842Z,2.00
2022-12-26T05:40:23.347Z,2.03
2022-12-26T05:42:50.883Z,1.85
2022-12-26T05:45:18.397Z,1.88
2022-12-26T05:47:51.772Z,1.73
2022-12-26T05:50:19.818Z,1.98
2022-12-26T05:52:49.449Z,1.98
2022-12-26T05:55:17.412Z,1.92
2022-12-26T05:57:44.871Z,2.10
2022-12-26T06:00:13.611Z,2.03
2022-12-26T06:02:41.147Z,2.70
2022-12-26T06:05:10.983Z,2.20
2022-12-26T06:07:38.848Z,1.80
2022-12-26T06:10:07.451Z,2.20
2022-12-26T06:12:35.005Z,2.40
2022-12-26T06:15:02.658Z,1.88
2022-12-26T06:17:30.217Z,2.03
2022-12-26T06:19:57.811Z,6.20
2022-12-26T06:22:26.605Z,4.80
2022-12-26T06:24:54.067Z,5.53
2022-12-26T06:27:21.540Z,7.15
2022-12-26T06:29:49.014Z,8.57
2022-12-26T06:32:16.502Z,7.82
2022-12-26T06:34:43.989Z,7.00
2022-12-26T06:37:11.437Z,4.88
2022-12-26T06:39:40.227Z,4.38
2022-12-26T06:42:07.697Z,3.38
2022-12-26T06:44:35.171Z,3.15
2022-12-26T06:47:03.132Z,3.03
2022-12-26T06:49:33.217Z,3.72
2022-12-26T06:52:00.926Z,3.17
2022-12-26T06:54:28.405Z,3.35
2022-12-26T06:56:57.182Z,4.47
2022-12-26T06:59:24.848Z,3.40
2022-12-26T07:01:52.501Z,3.25
2022-12-26T07:04:20.144Z,3.42
2022-12-26T07:06:47.652Z,3.30
2022-12-26T07:09:17.376Z,2.35
2022-12-26T07:11:46.874Z,2.28
2022-12-26T07:14:15.901Z,2.40
2022-12-26T07:16:45.421Z,2.38
2022-12-26T07:19:14.511Z,2.38
2022-12-26T07:21:44.507Z,5.65
2022-12-26T07:24:15.822Z,3.83
2022-12-26T07:26:43.806Z,7.35
2022-12-26T07:29:12.005Z,5.85
2022-12-26T07:31:41.176Z,6.32
2022-12-26T07:34:09.281Z,6.93
2022-12-26T07:36:37.021Z,8.20
2022-12-26T07:39:04.617Z,8.23
2022-12-26T07:41:49.921Z,8.35
2022-12-26T07:44:17.468Z,8.40
2022-12-26T07:46:46.509Z,9.70
2022-12-26T07:49:14.109Z,8.10
2022-12-26T07:51:42.058Z,10.50
2022-12-26T07:54:11.618Z,10.35
2022-12-26T07:56:39.696Z,10.73
2022-12-26T07:59:07.720Z,9.95
2022-12-26T08:01:35.462Z,8.68
2022-12-26T08:04:04.623Z,7.38
2022-12-26T08:06:32.117Z,7.10
2022-12-26T08:08:59.659Z,7.15
2022-12-26T08:11:27.208Z,6.82
2022-12-26T08:13:54.760Z,7.30
2022-12-26T08:16:22.318Z,13.15
2022-12-26T08:18:49.873Z,18.05
2022-12-26T08:21:18.662Z,13.52
2022-12-26T08:23:48.115Z,12.23
2022-12-26T08:26:20.782Z,9.77
2022-12-26T08:28:48.373Z,8.60
2022-12-26T08:31:16.061Z,7.25
2022-12-26T08:33:43.571Z,6.30
2022-12-26T08:36:12.828Z,6.45
2022-12-26T08:38:41.991Z,6.72
2022-12-26T08:41:10.056Z,6.30
2022-12-26T08:46:25.341Z,6.97
2022-12-26T08:48:52.878Z,7.88
2022-12-26T08:51:22.443Z,8.13
2022-12-26T08:53:52.210Z,9.30
2022-12-26T08:56:21.756Z,9.43
2022-12-26T08:58:49.381Z,8.40
2022-12-26T09:01:19.506Z,6.50
2022-12-26T09:03:47.610Z,5.07
2022-12-26T09:06:16.345Z,5.95
2022-12-26T09:08:44.121Z,21.85
2022-12-26T09:11:14.902Z,10.23
2022-12-26T09:13:43.359Z,9.02
2022-12-26T09:16:13.163Z,6.57
2022-12-26T09:18:41.338Z,7.88
2022-12-26T09:21:10.172Z,15.77
2022-12-26T09:23:38.618Z,11.23
2022-12-26T09:26:07.371Z,10.40
2022-12-26T09:28:36.725Z,7.55
2022-12-26T09:31:06.414Z,8.95
2022-12-26T09:33:36.159Z,8.63
2022-12-26T09:36:10.957Z,7.05
2022-12-26T09:38:41.830Z,10.77
2022-12-26T09:41:18.459Z,9.13
2022-12-26T09:43:54.492Z,9.70
2022-12-26T09:46:28.739Z,10.27
2022-12-26T09:48:59.364Z,9.02
2022-12-26T09:51:27.159Z,12.95
2022-12-26T09:53:55.182Z,10.65
2022-12-26T09:59:16.480Z,6.15
2022-12-26T10:01:44.561Z,5.95
2022-12-26T10:04:25.088Z,6.20
2022-12-26T10:07:04.844Z,6.13
2022-12-26T10:09:47.471Z,5.82
2022-12-26T10:12:25.112Z,6.38
2022-12-26T10:14:57.056Z,7.75
2022-12-26T10:17:29.790Z,8.30
2022-12-26T10:20:06.142Z,8.25
2022-12-26T10:23:02.324Z,11.18
2022-12-26T10:25:37.679Z,8.00
2022-12-26T10:28:06.615Z,6.90
2022-12-26T10:30:40.245Z,6.43
2022-12-26T10:33:12.770Z,6.30
2022-12-26T10:35:43.074Z,5.65
2022-12-26T10:38:14.803Z,6.53
2022-12-26T10:40:46.382Z,5.80
2022-12-26T10:43:22.816Z,6.40
2022-12-26T10:46:01.730Z,7.03
2022-12-26T10:48:31.768Z,6.60
2022-12-26T10:51:07.636Z,6.07
2022-12-26T10:53:39.394Z,5.93
2022-12-26T10:56:11.967Z,6.13
2022-12-26T10:58:42.813Z,6.30
2022-12-26T11:01:38.075Z,6.78
2022-12-26T11:04:07.295Z,6.32
2022-12-26T11:06:38.421Z,6.57
2022-12-26T11:09:06.273Z,6.50
2022-12-26T11:11:46.767Z,6.68
2022-12-26T11:14:33.797Z,6.50
2022-12-26T11:17:07.084Z,6.28
2022-12-26T11:19:37.380Z,13.90
2022-12-26T11:22:25.944Z,18.38
2022-12-26T11:25:13.761Z,16.70
2022-12-26T11:27:43.259Z,12.65
2022-12-26T11:30:26.940Z,8.60
2022-12-26T11:33:14.021Z,9.40
2022-12-26T11:35:52.374Z,8.65
2022-12-26T11:38:44.635Z,8.48
2022-12-26T11:41:33.619Z,6.70
2022-12-26T11:44:06.432Z,7.03
2022-12-26T11:49:07.249Z,7.07
2022-12-26T11:51:37.935Z,6.40
2022-12-26T11:54:22.398Z,6.97
2022-12-26T11:56:53.462Z,13.00
2022-12-26T11:59:24.832Z,7.68
2022-12-26T12:02:18.277Z,10.65
2022-12-26T12:04:49.386Z,6.57
2022-12-26T12:07:28.207Z,5.38
2022-12-26T12:10:02.918Z,5.45
2022-12-26T12:12:33.980Z,3.08
2022-12-26T12:15:07.013Z,3.35
2022-12-26T12:17:39.639Z,3.30
2022-12-26T12:20:19.213Z,2.83
2022-12-26T12:23:20.115Z,2.60
2022-12-26T12:25:55.923Z,6.57
2022-12-26T12:29:01.864Z,2.53
2022-12-26T12:31:35.766Z,2.75
2022-12-26T12:34:11.216Z,2.97
2022-12-26T12:37:02.545Z,2.60
2022-12-26T12:39:40.614Z,2.80
2022-12-26T12:42:23.477Z,2.55
2022-12-26T12:45:05.434Z,3.35
2022-12-26T12:47:42.413Z,2.30
2022-12-26T12:50:16.388Z,2.55
2022-12-26T12:52:50.158Z,2.65
2022-12-26T12:55:36.185Z,3.30
2022-12-26T12:58:08.911Z,6.07
2022-12-26T13:00:42.155Z,5.00
2022-12-26T13:03:12.590Z,5.28
2022-12-26T13:05:45.533Z,4.55
2022-12-26T13:08:19.345Z,3.05
2022-12-26T13:10:53.547Z,3.22
2022-12-26T13:13:26.005Z,2.65
2022-12-26T13:15:56.344Z,2.97
2022-12-26T13:18:25.098Z,3.30
2022-12-26T13:20:55.030Z,2.67
2022-12-26T13:23:46.483Z,2.88
2022-12-26T13:26:16.902Z,2.92
2022-12-26T13:28:52.831Z,4.05
2022-12-26T13:31:20.319Z,4.85
2022-12-26T13:33:47.901Z,4.55
2022-12-26T13:36:37.556Z,4.43
2022-12-26T13:39:40.941Z,6.10
2022-12-26T13:42:38.518Z,4.20
2022-12-26T13:45:43.354Z,2.15
2022-12-26T13:48:55.892Z,2.70
2022-12-26T13:51:43.842Z,2.47
2022-12-26T13:54:14.315Z,1.92
2022-12-26T13:57:33.566Z,2.90
2022-12-26T14:00:22.928Z,2.50
2022-12-26T14:03:20.043Z,2.28
2022-12-26T14:06:04.409Z,2.67
2022-12-26T14:08:38.401Z,2.85
2022-12-26T14:11:20.096Z,2.40
2022-12-26T14:13:57.897Z,2.20
2022-12-26T14:16:34.375Z,2.30
2022-12-26T14:19:07.646Z,2.15
2022-12-26T14:21:46.639Z,1.63
2022-12-26T14:24:24.565Z,2.08
2022-12-26T14:26:57.226Z,3.63
2022-12-26T14:29:28.169Z,2.10
2022-12-26T14:32:12.311Z,2.05
2022-12-26T14:34:49.267Z,2.05
2022-12-26T14:37:23.560Z,2.78
2022-12-26T14:40:02.261Z,2.13
2022-12-26T14:42:48.100Z,2.50
2022-12-26T14:45:55.643Z,2.90
2022-12-26T14:48:50.239Z,3.05
2022-12-26T14:51:39.776Z,3.22
2022-12-26T14:54:50.885Z,2.75
2022-12-26T14:57:46.104Z,2.05
2022-12-26T15:00:21.316Z,2.58
2022-12-26T15:02:53.287Z,3.10
2022-12-26T15:05:23.820Z,2.20
2022-12-26T15:08:10.879Z,2.47
2022-12-26T15:11:20.733Z,3.20
2022-12-26T15:14:19.205Z,3.40
2022-12-26T15:16:57.113Z,3.15
2022-12-26T15:19:57.127Z,3.15
2022-12-26T15:23:18.275Z,3.75
2022-12-26T15:26:14.312Z,2.30
2022-12-26T15:29:14.522Z,2.10
2022-12-26T15:31:49.076Z,1.73
2022-12-26T15:34:32.076Z,1.50
2022-12-26T15:37:03.628Z,1.77
2022-12-26T15:39:37.208Z,2.78
2022-12-26T15:42:23.593Z,2.00
2022-12-26T15:44:58.417Z,3.65
2022-12-26T15:47:30.585Z,3.80
2022-12-26T15:50:08.266Z,5.03
2022-12-26T15:52:43.743Z,4.00
2022-12-26T15:55:23.956Z,4.28
2022-12-26T15:57:58.756Z,4.28
2022-12-26T16:00:27.549Z,2.90
2022-12-26T16:03:10.051Z,4.13
2022-12-26T16:05:58.893Z,3.65
2022-12-26T16:08:57.896Z,3.33
2022-12-26T16:11:28.504Z,2.65
2022-12-26T16:14:00.407Z,3.05
2022-12-26T16:16:30.846Z,2.63
2022-12-26T16:18:58.803Z,15.18
2022-12-26T16:21:46.487Z,20.17
2022-12-26T16:24:15.355Z,5.93
2022-12-26T16:26:44.836Z,3.45
2022-12-26T16:29:18.235Z,2.75
2022-12-26T16:31:46.715Z,3.60
2022-12-26T16:34:17.343Z,3.50
2022-12-26T16:36:45.411Z,3.90
2022-12-26T16:39:13.483Z,3.85
2022-12-26T16:41:58.845Z,2.88
2022-12-26T16:44:32.185Z,3.63
2022-12-26T16:47:02.193Z,2.63
2022-12-26T16:49:32.023Z,4.03
2022-12-26T16:51:59.791Z,3.33
2022-12-26T16:54:31.519Z,5.45
2022-12-26T16:57:04.565Z,3.28
2022-12-26T16:59:43.750Z,4.28
2022-12-26T17:02:17.362Z,2.97
2022-12-26T17:04:55.443Z,5.90
2022-12-26T17:07:27.763Z,41.35
2022-12-26T17:09:57.830Z,14.00
2022-12-26T17:12:28.382Z,20.70
2022-12-26T17:14:58.195Z,6.13
2022-12-26T17:17:34.862Z,6.05
2022-12-26T17:20:44.081Z,3.80
2022-12-26T17:23:34.299Z,10.85
2022-12-26T17:26:21.536Z,9.70
2022-12-26T17:28:49.043Z,11.32
2022-12-26T17:31:23.304Z,3.67
2022-12-26T17:33:51.383Z,6.22
2022-12-26T17:37:08.137Z,4.78
2022-12-26T17:39:14.363Z,7.15
2022-12-26T17:41:43.804Z,5.68
2022-12-26T17:44:36.362Z,5.65
2022-12-26T17:47:14.861Z,4.72
2022-12-26T17:49:42.364Z,5.20
2022-12-26T17:52:10.469Z,8.82
2022-12-26T17:54:37.939Z,4.60
2022-12-26T17:57:05.492Z,5.78
2022-12-26T17:59:33.046Z,4.20
2022-12-26T18:02:00.638Z,5.50
2022-12-26T18:04:29.495Z,5.40
2022-12-26T18:06:56.998Z,3.60
2022-12-26T18:09:27.882Z,5.30
2022-12-26T18:11:55.573Z,4.63
2022-12-26T18:14:23.127Z,4.95
2022-12-26T18:16:52.652Z,5.80
2022-12-26T18:19:20.601Z,4.35
2022-12-26T18:21:49.370Z,6.88
2022-12-26T18:24:16.855Z,5.18
2022-12-26T18:26:44.619Z,3.70
2022-12-26T18:29:12.427Z,2.67
2022-12-26T18:31:40.023Z,3.65
2022-12-26T18:34:07.938Z,2.90
2022-12-26T18:36:36.720Z,3.40
2022-12-26T18:39:06.588Z,4.00
2022-12-26T18:41:34.150Z,4.05
2022-12-26T18:44:01.644Z,5.75
2022-12-26T18:46:29.737Z,3.05
2022-12-26T18:48:57.603Z,3.42
2022-12-26T18:51:26.092Z,4.45
2022-12-26T18:53:53.850Z,6.40
2022-12-26T18:56:23.658Z,6.25
2022-12-26T18:58:57.399Z,3.45
2022-12-26T19:01:25.845Z,5.63
2022-12-26T19:03:55.095Z,6.15
2022-12-26T19:06:25.066Z,8.10
2022-12-26T19:08:52.613Z,7.93
2022-12-26T19:11:21.825Z,7.90
2022-12-26T19:13:49.430Z,6.68
2022-12-26T19:16:17.047Z,5.85
2022-12-26T19:18:44.596Z,5.10
2022-12-26T19:21:13.418Z,4.43
2022-12-26T19:23:41.435Z,3.72
2022-12-26T19:26:10.649Z,5.53
2022-12-26T19:28:39.768Z,4.07
2022-12-26T19:31:08.265Z,3.97
2022-12-26T19:33:35.775Z,2.97
2022-12-26T19:36:03.368Z,3.58
2022-12-26T19:38:30.870Z,4.32
2022-12-26T19:41:02.554Z,2.50
2022-12-26T19:43:30.147Z,3.25
2022-12-26T19:46:03.462Z,4.05
2022-12-26T19:48:31.612Z,3.92
2022-12-26T19:51:01.580Z,3.88
2022-12-26T19:53:29.063Z,4.03
2022-12-26T19:55:56.581Z,5.57
2022-12-26T19:58:24.214Z,2.70
2022-12-26T20:00:51.751Z,4.25
2022-12-26T20:03:20.701Z,3.88
2022-12-26T20:05:48.220Z,3.47
2022-12-26T20:08:15.683Z,4.93
2022-12-26T20:10:43.206Z,4.07
2022-12-26T20:13:10.692Z,3.97
2022-12-26T20:15:39.166Z,4.63
2022-12-26T20:18:08.819Z,7.97
2022-12-26T20:20:39.666Z,4.15
2022-12-26T20:23:07.160Z,3.40
2022-12-26T20:25:34.644Z,3.80
2022-12-26T20:28:02.131Z,4.00
2022-12-26T20:30:29.936Z,3.28
2022-12-26T20:32:58.185Z,4.18
2022-12-26T20:35:25.687Z,4.07
2022-12-26T20:37:54.512Z,3.72
2022-12-26T20:40:22.588Z,3.92
2022-12-26T20:42:51.189Z,5.15
2022-12-26T20:45:18.976Z,6.05
2022-12-26T20:47:46.631Z,6.03
2022-12-26T20:50:14.306Z,6.22
2022-12-26T20:52:41.764Z,7.18
2022-12-26T20:55:11.114Z,5.03
2022-12-26T20:57:39.727Z,4.60
2022-12-26T21:00:09.032Z,4.47
2022-12-26T21:02:36.615Z,4.30
2022-12-26T21:05:07.323Z,4.68
2022-12-26T21:07:34.852Z,4.03
2022-12-26T21:10:03.491Z,3.22
2022-12-26T21:12:34.487Z,3.25
2022-12-26T21:15:02.518Z,3.90
2022-12-26T21:17:30.411Z,3.35
2022-12-26T21:19:57.892Z,3.60
2022-12-26T21:22:25.637Z,3.33
2022-12-26T21:24:53.375Z,3.65
2022-12-26T21:27:20.849Z,6.18
2022-12-26T21:29:49.877Z,5.45
2022-12-26T21:32:17.542Z,4.60
2022-12-26T21:34:45.644Z,4.32
2022-12-26T21:37:31.573Z,4.78
2022-12-26T21:39:59.068Z,5.30
2022-12-26T21:42:26.648Z,3.65
2022-12-26T21:44:55.417Z,4.80
2022-12-26T21:47:22.904Z,3.70
2022-12-26T21:49:50.477Z,4.25
2022-12-26T21:52:18.125Z,4.38
2022-12-26T21:55:03.143Z,4.60
2022-12-26T21:57:31.502Z,5.75
2022-12-26T22:00:00.827Z,4.47
2022-12-26T22:02:48.031Z,3.55
2022-12-26T22:05:16.430Z,3.95
2022-12-26T22:07:44.169Z,2.95
2022-12-26T22:10:33.396Z,2.60
2022-12-26T22:13:00.704Z,3.65
2022-12-26T22:15:50.723Z,4.03
2022-12-26T22:18:18.822Z,4.25
2022-12-26T22:20:46.444Z,4.13
2022-12-26T22:23:14.302Z,4.03
2022-12-26T22:25:42.056Z,2.85
2022-12-26T22:28:09.524Z,3.10
2022-12-26T22:30:38.331Z,2.75
2022-12-26T22:33:05.877Z,4.68
2022-12-26T22:35:33.823Z,3.25
2022-12-26T22:38:01.306Z,3.88
2022-12-26T22:40:28.950Z,4.20
2022-12-26T22:42:56.850Z,4.78
2022-12-26T22:45:24.715Z,4.60
2022-12-26T22:47:53.750Z,2.85
2022-12-26T22:50:21.644Z,3.63
2022-12-26T22:52:49.130Z,3.80
2022-12-26T22:55:17.131Z,3.20
2022-12-26T22:57:51.062Z,3.33
2022-12-26T23:00:20.318Z,4.03
2022-12-26T23:02:48.241Z,3.33
2022-12-26T23:05:18.192Z,6.68
2022-12-26T23:07:46.493Z,3.70
2022-12-26T23:10:19.014Z,4.40
2022-12-26T23:12:46.927Z,4.20
2022-12-26T23:15:17.379Z,3.88
2022-12-26T23:18:08.356Z,6.25
2022-12-26T23:20:57.075Z,4.47
2022-12-26T23:23:26.100Z,4.35
2022-12-26T23:25:53.618Z,5.32
2022-12-26T23:28:39.900Z,5.45
2022-12-26T23:31:07.759Z,4.68
2022-12-26T23:33:35.228Z,4.30
2022-12-26T23:36:04.136Z,4.03
2022-12-26T23:38:31.831Z,3.92
2022-12-26T23:40:59.380Z,4.32
2022-12-26T23:43:27.097Z,3.85
2022-12-26T23:45:54.629Z,4.38
2022-12-26T23:48:22.080Z,4.65
2022-12-26T23:50:50.092Z,3.25
2022-12-26T23:53:18.907Z,3.80
2022-12-26T23:55:46.409Z,2.92
2022-12-26T23:58:13.864Z,3.78
